createdAt,value
2023-02-18T15:25:16.967Z,13.36
2023-02-18T15:26:16.488Z,13.38
2023-02-18T15:27:16.401Z,13.38
2023-02-18T15:28:16.319Z,13.41
2023-02-18T15:29:16.233Z,13.32
2023-02-18T15:30:18.085Z,13.37
2023-02-18T15:31:16.596Z,13.37
2023-02-18T15:32:16.150Z,13.36
2023-02-18T15:33:15.915Z,13.37
2023-02-18T15:34:15.842Z,13.29
2023-02-18T15:35:15.762Z,13.22
2023-02-18T15:36:15.675Z,13.28
2023-02-18T15:37:15.601Z,13.28
2023-02-18T15:38:15.516Z,13.21
2023-02-18T15:39:15.443Z,13.25
2023-02-18T15:40:15.359Z,13.22
2023-02-18T15:41:15.294Z,13.19
2023-02-18T15:42:15.201Z,13.17
2023-02-18T15:43:15.122Z,13.14
2023-02-18T15:44:15.043Z,13.11
2023-02-18T15:45:14.967Z,13.14
2023-02-18T15:46:14.895Z,13.15
2023-02-18T15:47:14.806Z,13.06
2023-02-18T15:48:14.723Z,13.02
2023-02-18T15:49:14.651Z,12.96
2023-02-18T15:50:14.611Z,13.00
2023-02-18T15:51:17.764Z,12.88
2023-02-18T15:52:14.401Z,12.88
2023-02-18T15:53:14.331Z,12.86
2023-02-18T15:54:14.253Z,12.85
2023-02-18T15:55:14.168Z,12.74
2023-02-18T15:56:14.096Z,12.64
2023-02-18T15:57:14.008Z,12.66
2023-02-18T15:58:13.940Z,12.67
2023-02-18T15:59:13.850Z,12.60
2023-02-18T16:00:13.824Z,12.55
2023-02-18T16:01:13.963Z,12.60
2023-02-18T16:02:13.642Z,12.63
2023-02-18T16:03:13.537Z,12.49
2023-02-18T16:04:13.451Z,12.52
2023-02-18T16:05:13.373Z,12.46
2023-02-18T16:06:13.295Z,12.41
2023-02-18T16:07:13.235Z,12.39
2023-02-18T16:08:13.156Z,12.27
2023-02-18T16:09:13.058Z,12.26
2023-02-18T16:10:12.982Z,12.28
2023-02-18T16:11:12.919Z,12.24
2023-02-18T16:12:12.811Z,12.33
2023-02-18T16:13:12.738Z,12.27
2023-02-18T16:14:12.656Z,12.18
2023-02-18T16:15:12.580Z,12.19
2023-02-18T16:16:12.741Z,12.13
2023-02-18T16:17:12.419Z,12.23
2023-02-18T16:18:12.333Z,12.16
2023-02-18T16:19:12.259Z,12.09
2023-02-18T16:20:12.176Z,12.11
2023-02-18T16:21:12.097Z,12.08
2023-02-18T16:22:12.017Z,12.09
2023-02-18T16:23:11.936Z,11.98
2023-02-18T16:24:11.854Z,11.93
2023-02-18T16:25:11.779Z,11.97
2023-02-18T16:26:11.694Z,11.98
2023-02-18T16:27:11.619Z,11.86
2023-02-18T16:28:11.538Z,12.00
2023-02-18T16:29:13.739Z,11.94
2023-02-18T16:30:11.445Z,11.94
2023-02-18T16:31:11.374Z,11.87
2023-02-18T16:32:11.441Z,11.97
2023-02-18T16:33:11.139Z,11.79
2023-02-18T16:34:11.070Z,11.83
2023-02-18T16:35:10.984Z,11.86
2023-02-18T16:36:11.072Z,11.84
2023-02-18T16:37:10.821Z,11.90
2023-02-18T16:38:10.738Z,11.84
2023-02-18T16:39:10.670Z,11.84
2023-02-18T16:40:10.581Z,11.78
2023-02-18T16:41:10.502Z,11.76
2023-02-18T16:42:10.419Z,11.78
2023-02-18T16:43:10.345Z,11.76
2023-02-18T16:44:10.375Z,11.79
2023-02-18T16:45:10.184Z,11.74
2023-02-18T16:46:10.464Z,11.79
2023-02-18T16:47:10.045Z,11.78
2023-02-18T16:48:09.941Z,11.76
2023-02-18T16:49:09.862Z,11.78
2023-02-18T16:50:09.781Z,11.75
2023-02-18T16:51:09.818Z,11.79
2023-02-18T16:52:09.621Z,11.78
2023-02-18T16:53:09.543Z,11.74
2023-02-18T16:54:09.462Z,11.79
2023-02-18T16:55:09.384Z,11.75
2023-02-18T16:56:09.641Z,11.75
2023-02-18T16:57:09.222Z,11.74
2023-02-18T16:58:09.139Z,11.67
2023-02-18T16:59:09.069Z,11.72
2023-02-18T17:00:08.997Z,11.61
2023-02-18T17:01:08.952Z,11.71
2023-02-18T17:02:08.819Z,11.69
2023-02-18T17:03:08.745Z,11.65
2023-02-18T17:04:08.709Z,11.64
2023-02-18T17:05:20.618Z,11.59
2023-02-18T17:06:08.915Z,11.67
2023-02-18T17:07:08.426Z,11.57
2023-02-18T17:08:08.341Z,11.50
2023-02-18T17:09:08.264Z,11.50
2023-02-18T17:10:08.193Z,11.56
2023-02-18T17:11:08.112Z,11.46
2023-02-18T17:12:08.022Z,11.50
2023-02-18T17:13:07.950Z,11.51
2023-02-18T17:14:07.861Z,11.41
2023-02-18T17:15:07.790Z,11.43
2023-02-18T17:16:07.986Z,11.41
2023-02-18T17:17:07.646Z,11.42
2023-02-18T17:18:07.544Z,11.35
2023-02-18T17:19:07.463Z,11.39
2023-02-18T17:20:07.383Z,11.39
2023-02-18T17:21:07.298Z,11.36
2023-02-18T17:22:07.230Z,11.34
2023-02-18T17:23:07.288Z,11.32
2023-02-18T17:24:07.065Z,11.31
2023-02-18T17:25:06.981Z,11.36
2023-02-18T17:26:07.238Z,11.38
2023-02-18T17:27:06.818Z,11.34
2023-02-18T17:28:06.736Z,11.29
2023-02-18T17:29:06.676Z,11.28
2023-02-18T17:30:06.625Z,11.28
2023-02-18T17:31:06.522Z,11.36
2023-02-18T17:32:06.459Z,11.29
2023-02-18T17:33:06.346Z,11.28
2023-02-18T17:34:06.263Z,11.32
2023-02-18T17:35:06.178Z,11.28
2023-02-18T17:36:06.094Z,11.21
2023-02-18T17:37:06.019Z,11.16
2023-02-18T17:38:05.940Z,11.18
2023-02-18T17:39:05.862Z,11.23
2023-02-18T17:40:05.774Z,11.20
2023-02-18T17:41:05.704Z,11.20
2023-02-18T17:42:05.617Z,11.18
2023-02-18T17:43:05.535Z,11.29
2023-02-18T17:44:05.462Z,11.28
2023-02-18T17:45:05.378Z,11.26
2023-02-18T17:46:05.326Z,11.24
2023-02-18T17:47:05.226Z,11.31
2023-02-18T17:48:05.140Z,11.23
2023-02-18T17:49:05.062Z,11.28
2023-02-18T17:50:04.974Z,11.13
2023-02-18T17:51:04.958Z,11.26
2023-02-18T17:52:04.818Z,11.17
2023-02-18T17:53:04.733Z,11.23
2023-02-18T17:54:04.653Z,11.24
2023-02-18T17:55:04.589Z,11.21
2023-02-18T17:56:04.488Z,11.23
2023-02-18T17:57:04.422Z,11.32
2023-02-18T17:58:04.338Z,11.20
2023-02-18T17:59:04.255Z,11.24
2023-02-18T18:00:04.188Z,11.23
2023-02-18T18:01:04.137Z,11.06
2023-02-18T18:02:04.012Z,11.14
2023-02-18T18:03:03.947Z,11.18
2023-02-18T18:04:03.875Z,11.20
2023-02-18T18:05:03.777Z,11.14
2023-02-18T18:06:03.685Z,11.29
2023-02-18T18:07:03.611Z,11.23
2023-02-18T18:08:03.529Z,11.20
2023-02-18T18:09:03.442Z,11.23
2023-02-18T18:10:03.368Z,11.20
2023-02-18T18:11:03.287Z,11.17
2023-02-18T18:12:03.207Z,11.20
2023-02-18T18:13:03.133Z,11.17
2023-02-18T18:14:03.054Z,11.08
2023-02-18T18:15:02.972Z,11.17
2023-02-18T18:16:02.938Z,11.14
2023-02-18T18:17:02.811Z,11.11
2023-02-18T18:18:02.721Z,11.17
2023-02-18T18:19:02.657Z,11.10
2023-02-18T18:20:02.572Z,11.08
2023-02-18T18:21:02.489Z,11.10
2023-02-18T18:22:02.402Z,11.16
2023-02-18T18:23:02.323Z,11.16
2023-02-18T18:24:02.256Z,11.14
2023-02-18T18:25:02.153Z,11.03
2023-02-18T18:26:02.133Z,11.05
2023-02-18T18:27:01.998Z,11.06
2023-02-18T18:28:01.922Z,11.05
2023-02-18T18:29:01.858Z,11.03
2023-02-18T18:30:01.823Z,11.02
2023-02-18T18:31:01.743Z,10.99
2023-02-18T18:32:01.629Z,10.99
2023-02-18T18:33:01.552Z,11.02
2023-02-18T18:34:01.460Z,11.02
2023-02-18T18:35:01.362Z,10.95
2023-02-18T18:36:01.279Z,10.88
2023-02-18T18:37:01.212Z,10.98
2023-02-18T18:38:01.123Z,10.87
2023-02-18T18:39:01.035Z,10.92
2023-02-18T18:40:01.005Z,10.84
2023-02-18T18:41:00.875Z,10.87
2023-02-18T18:42:00.794Z,10.77
2023-02-18T18:43:00.714Z,10.77
2023-02-18T18:44:00.632Z,10.78
2023-02-18T18:45:00.549Z,10.83
2023-02-18T18:46:00.618Z,10.80
2023-02-18T18:47:00.388Z,10.77
2023-02-18T18:48:00.304Z,10.77
2023-02-18T18:49:00.228Z,10.74
2023-02-18T18:50:00.210Z,10.69
2023-02-18T18:51:00.065Z,10.73
2023-02-18T18:51:59.984Z,10.67
2023-02-18T18:52:59.916Z,10.71
2023-02-18T18:53:59.826Z,10.59
2023-02-18T18:54:59.745Z,10.66
2023-02-18T18:55:59.661Z,10.55
2023-02-18T18:56:59.584Z,10.65
2023-02-18T18:57:59.503Z,10.71
2023-02-18T18:58:59.431Z,10.66
2023-02-18T19:00:01.026Z,10.71
2023-02-18T19:00:59.311Z,10.74
2023-02-18T19:01:59.177Z,10.67
2023-02-18T19:03:00.121Z,10.74
2023-02-18T19:03:59.046Z,10.63
2023-02-18T19:04:58.932Z,10.67
2023-02-18T19:05:58.861Z,10.63
2023-02-18T19:06:58.774Z,10.59
2023-02-18T19:07:58.720Z,10.56
2023-02-18T19:08:58.607Z,10.53
2023-02-18T19:09:58.527Z,10.56
2023-02-18T19:10:58.443Z,10.56
2023-02-18T19:11:58.365Z,10.58
2023-02-18T19:12:58.282Z,10.56
2023-02-18T19:13:58.205Z,10.58
2023-02-18T19:14:58.136Z,10.63
2023-02-18T19:15:58.098Z,10.63
2023-02-18T19:16:57.960Z,10.58
2023-02-18T19:17:57.888Z,10.67
2023-02-18T19:18:57.799Z,10.63
2023-02-18T19:19:57.723Z,10.60
2023-02-18T19:20:57.680Z,10.65
2023-02-18T19:21:57.562Z,10.66
2023-02-18T19:22:57.479Z,10.67
2023-02-18T19:23:57.399Z,10.59
2023-02-18T19:24:57.316Z,10.59
2023-02-18T19:25:57.234Z,10.65
2023-02-18T19:26:57.161Z,10.60
2023-02-18T19:27:57.073Z,10.59
2023-02-18T19:28:56.990Z,10.69
2023-02-18T19:29:56.924Z,10.58
2023-02-18T19:30:56.871Z,10.67
2023-02-18T19:31:56.772Z,10.58
2023-02-18T19:32:56.666Z,10.55
2023-02-18T19:33:56.599Z,10.58
2023-02-18T19:34:56.506Z,10.60
2023-02-18T19:35:56.426Z,10.58
2023-02-18T19:36:56.343Z,10.58
2023-02-18T19:37:56.267Z,10.59
2023-02-18T19:38:56.180Z,10.53
2023-02-18T19:39:56.102Z,10.63
2023-02-18T19:40:56.029Z,10.55
2023-02-18T19:41:55.952Z,10.58
2023-02-18T19:42:55.867Z,10.62
2023-02-18T19:43:55.784Z,10.63
2023-02-18T19:44:55.707Z,10.51
2023-02-18T19:45:55.623Z,10.67
2023-02-18T19:46:55.529Z,10.66
2023-02-18T19:47:55.464Z,10.60
2023-02-18T19:48:55.371Z,10.66
2023-02-18T19:49:55.290Z,10.69
2023-02-18T19:50:55.218Z,10.55
2023-02-18T19:51:55.133Z,10.58
2023-02-18T19:52:55.057Z,10.59
2023-02-18T19:53:54.995Z,10.60
2023-02-18T19:54:54.895Z,10.60
2023-02-18T19:55:54.809Z,10.56
2023-02-18T19:56:54.738Z,10.58
2023-02-18T19:57:54.651Z,10.60
2023-02-18T19:58:54.578Z,10.65
2023-02-18T19:59:54.493Z,10.65
2023-02-18T20:00:54.401Z,10.63
2023-02-18T20:01:54.376Z,10.63
2023-02-18T20:02:54.339Z,10.67
2023-02-18T20:03:54.181Z,10.60
2023-02-18T20:04:54.105Z,10.56
2023-02-18T20:05:54.020Z,10.65
2023-02-18T20:06:53.917Z,10.55
2023-02-18T20:07:53.846Z,10.56
2023-02-18T20:08:55.190Z,10.63
2023-02-18T20:09:53.689Z,10.59
2023-02-18T20:10:53.592Z,10.67
2023-02-18T20:11:53.512Z,10.65
2023-02-18T20:12:53.497Z,10.59
2023-02-18T20:13:53.353Z,10.53
2023-02-18T20:14:53.267Z,10.59
2023-02-18T20:15:53.196Z,10.58
2023-02-18T20:16:53.109Z,10.58
2023-02-18T20:17:53.027Z,10.65
2023-02-18T20:18:52.951Z,10.66
2023-02-18T20:19:52.883Z,10.55
2023-02-18T20:20:52.790Z,10.65
2023-02-18T20:21:52.704Z,10.60
2023-02-18T20:22:52.617Z,10.60
2023-02-18T20:23:52.538Z,10.67
2023-02-18T20:24:52.470Z,10.66
2023-02-18T20:25:52.378Z,10.60
2023-02-18T20:26:52.303Z,10.63
2023-02-18T20:28:00.882Z,10.67
2023-02-18T20:28:52.139Z,10.66
2023-02-18T20:29:52.057Z,10.65
2023-02-18T20:30:51.988Z,10.66
2023-02-18T20:31:52.020Z,10.63
2023-02-18T20:32:51.813Z,10.62
2023-02-18T20:33:53.529Z,10.63
2023-02-18T20:34:51.644Z,10.63
2023-02-18T20:35:51.572Z,10.69
2023-02-18T20:36:51.487Z,10.69
2023-02-18T20:37:51.408Z,10.71
2023-02-18T20:38:51.327Z,10.58
2023-02-18T20:39:51.249Z,10.71
2023-02-18T20:40:51.170Z,10.75
2023-02-18T20:41:51.092Z,10.67
2023-02-18T20:42:51.023Z,10.60
2023-02-18T20:43:50.927Z,10.63
2023-02-18T20:44:50.836Z,10.67
2023-02-18T20:45:50.761Z,10.53
2023-02-18T20:46:50.681Z,10.69
2023-02-18T20:47:50.602Z,10.63
2023-02-18T20:48:50.512Z,10.63
2023-02-18T20:49:50.436Z,10.53
2023-02-18T20:50:50.356Z,10.67
2023-02-18T20:51:50.270Z,10.65
2023-02-18T20:52:50.194Z,10.55
2023-02-18T20:53:50.120Z,10.58
2023-02-18T20:54:50.025Z,10.63
2023-02-18T20:55:49.968Z,10.62
2023-02-18T20:56:49.903Z,10.60
2023-02-18T20:57:49.804Z,10.62
2023-02-18T20:58:49.709Z,10.71
2023-02-18T20:59:49.651Z,10.66
2023-02-18T21:00:49.553Z,10.66
2023-02-18T21:01:49.546Z,10.65
2023-02-18T21:02:49.494Z,10.65
2023-02-18T21:03:49.309Z,10.71
2023-02-18T21:04:49.230Z,10.58
2023-02-18T21:05:49.141Z,10.66
2023-02-18T21:06:49.060Z,10.65
2023-02-18T21:07:48.980Z,10.71
2023-02-18T21:08:48.912Z,10.60
2023-02-18T21:09:48.833Z,10.62
2023-02-18T21:10:48.739Z,10.53
2023-02-18T21:11:48.657Z,10.59
2023-02-18T21:12:48.585Z,10.55
2023-02-18T21:13:48.491Z,10.63
2023-02-18T21:14:48.410Z,10.65
2023-02-18T21:15:48.358Z,10.59
2023-02-18T21:16:48.256Z,10.67
2023-02-18T21:17:48.168Z,10.56
2023-02-18T21:18:48.090Z,10.58
2023-02-18T21:19:48.009Z,10.65
2023-02-18T21:20:47.925Z,10.73
2023-02-18T21:21:47.844Z,10.71
2023-02-18T21:22:47.757Z,10.71
2023-02-18T21:23:47.678Z,10.73
2023-02-18T21:24:47.596Z,10.73
2023-02-18T21:25:47.512Z,10.63
2023-02-18T21:26:47.435Z,10.62
2023-02-18T21:27:47.381Z,10.71
2023-02-18T21:28:47.344Z,10.63
2023-02-18T21:29:47.217Z,10.65
2023-02-18T21:30:47.117Z,10.62
2023-02-18T21:31:47.107Z,10.65
2023-02-18T21:32:47.002Z,10.55
2023-02-18T21:33:46.892Z,10.63
2023-02-18T21:34:46.808Z,10.56
2023-02-18T21:35:46.710Z,10.60
2023-02-18T21:36:46.622Z,10.67
2023-02-18T21:37:46.546Z,10.63
2023-02-18T21:38:46.464Z,10.55
2023-02-18T21:39:46.393Z,10.59
2023-02-18T21:40:46.301Z,10.56
2023-02-18T21:41:46.222Z,10.58
2023-02-18T21:42:46.146Z,10.58
2023-02-18T21:43:46.057Z,10.67
2023-02-18T21:44:45.977Z,10.53
2023-02-18T21:45:45.903Z,10.59
2023-02-18T21:46:45.843Z,10.67
2023-02-18T21:47:45.736Z,10.55
2023-02-18T21:48:45.696Z,10.66
2023-02-18T21:49:45.577Z,10.65
2023-02-18T21:50:45.486Z,10.63
2023-02-18T21:51:45.413Z,10.63
2023-02-18T21:52:45.329Z,10.55
2023-02-18T21:53:45.250Z,10.55
2023-02-18T21:54:45.168Z,10.58
2023-02-18T21:55:52.465Z,10.59
2023-02-18T21:56:45.018Z,10.51
2023-02-18T21:57:44.928Z,10.59
2023-02-18T21:58:44.849Z,10.53
2023-02-18T21:59:44.767Z,10.56
2023-02-18T22:00:44.747Z,10.56
2023-02-18T22:01:44.660Z,10.58
2023-02-18T22:02:44.523Z,10.59
2023-02-18T22:03:44.449Z,10.55
2023-02-18T22:04:44.372Z,10.53
2023-02-18T22:05:44.288Z,10.56
2023-02-18T22:06:44.198Z,10.56
2023-02-18T22:07:44.120Z,10.58
2023-02-18T22:08:44.042Z,10.62
2023-02-18T22:09:45.198Z,10.55
2023-02-18T22:10:43.888Z,10.63
2023-02-18T22:11:43.806Z,10.55
2023-02-18T22:12:43.751Z,10.56
2023-02-18T22:13:43.643Z,10.49
2023-02-18T22:14:43.558Z,10.55
2023-02-18T22:15:43.480Z,10.55
2023-02-18T22:16:43.434Z,10.43
2023-02-18T22:17:43.361Z,10.53
2023-02-18T22:18:43.229Z,10.49
2023-02-18T22:19:43.152Z,10.47
2023-02-18T22:20:43.074Z,10.46
2023-02-18T22:21:43.014Z,10.47
2023-02-18T22:22:42.911Z,10.49
2023-02-18T22:23:42.835Z,10.51
2023-02-18T22:24:42.746Z,10.46
2023-02-18T22:25:42.661Z,10.47
2023-02-18T22:26:42.581Z,10.53
2023-02-18T22:27:42.504Z,10.46
2023-02-18T22:28:42.418Z,10.46
2023-02-18T22:29:42.335Z,10.43
2023-02-18T22:30:42.251Z,10.46
2023-02-18T22:31:42.302Z,10.41
2023-02-18T22:32:42.089Z,10.44
2023-02-18T22:33:43.550Z,10.36
2023-02-18T22:34:41.930Z,10.34
2023-02-18T22:35:41.847Z,10.41
2023-02-18T22:36:41.772Z,10.39
2023-02-18T22:37:41.693Z,10.41
2023-02-18T22:38:41.603Z,10.37
2023-02-18T22:39:41.519Z,10.39
2023-02-18T22:40:41.445Z,10.40
2023-02-18T22:41:41.362Z,10.43
2023-02-18T22:42:41.279Z,10.40
2023-02-18T22:43:41.201Z,10.36
2023-02-18T22:44:41.118Z,10.37
2023-02-18T22:45:41.061Z,10.36
2023-02-18T22:46:40.960Z,10.34
2023-02-18T22:47:40.879Z,10.25
2023-02-18T22:48:40.798Z,10.22
2023-02-18T22:49:42.550Z,10.33
2023-02-18T22:50:40.635Z,10.26
2023-02-18T22:51:40.568Z,10.22
2023-02-18T22:52:40.471Z,10.21
2023-02-18T22:53:40.399Z,10.28
2023-02-18T22:54:40.310Z,10.18
2023-02-18T22:55:40.233Z,10.26
2023-02-18T22:56:40.177Z,10.21
2023-02-18T22:57:40.069Z,10.25
2023-02-18T22:58:39.986Z,10.23
2023-02-18T22:59:39.908Z,10.13
2023-02-18T23:00:39.842Z,10.19
2023-02-18T23:01:39.803Z,10.15
2023-02-18T23:02:39.657Z,10.13
2023-02-18T23:03:39.597Z,10.23
2023-02-18T23:04:39.497Z,10.11
2023-02-18T23:05:39.413Z,10.16
2023-02-18T23:06:39.361Z,10.16
2023-02-18T23:07:39.250Z,10.04
2023-02-18T23:08:39.167Z,10.13
2023-02-18T23:09:39.085Z,10.16
2023-02-18T23:10:39.052Z,10.16
2023-02-18T23:11:38.925Z,10.10
2023-02-18T23:12:38.843Z,10.13
2023-02-18T23:13:38.765Z,10.10
2023-02-18T23:14:38.682Z,10.04
2023-02-18T23:15:38.606Z,10.07
2023-02-18T23:16:38.609Z,10.11
2023-02-18T23:17:38.443Z,10.04
2023-02-18T23:18:38.373Z,10.10
2023-02-18T23:19:38.291Z,10.01
2023-02-18T23:20:38.196Z,10.08
2023-02-18T23:21:38.114Z,10.06
2023-02-18T23:22:38.039Z,9.93
2023-02-18T23:23:37.955Z,10.03
2023-02-18T23:24:37.879Z,10.04
2023-02-18T23:25:37.791Z,10.10
2023-02-18T23:26:37.709Z,10.01
2023-02-18T23:27:37.624Z,9.90
2023-02-18T23:28:37.546Z,9.96
2023-02-18T23:29:37.465Z,10.06
2023-02-18T23:30:37.460Z,10.04
2023-02-18T23:31:37.533Z,10.03
2023-02-18T23:32:39.258Z,10.06
2023-02-18T23:33:37.135Z,10.10
2023-02-18T23:34:37.059Z,10.13
2023-02-18T23:35:36.978Z,10.16
2023-02-18T23:36:36.898Z,10.06
2023-02-18T23:37:36.810Z,10.11
2023-02-18T23:38:36.737Z,10.01
2023-02-18T23:39:36.656Z,9.98
2023-02-18T23:40:37.576Z,9.89
2023-02-18T23:41:36.494Z,9.90
2023-02-18T23:42:36.412Z,9.93
2023-02-18T23:43:36.329Z,9.90
2023-02-18T23:44:36.253Z,9.90
2023-02-18T23:45:36.163Z,9.92
2023-02-18T23:46:36.089Z,9.97
2023-02-18T23:47:36.001Z,9.98
2023-02-18T23:48:38.195Z,9.88
2023-02-18T23:49:35.857Z,9.98
2023-02-18T23:50:35.762Z,10.06
2023-02-18T23:51:35.681Z,10.00
2023-02-18T23:52:35.610Z,10.01
2023-02-18T23:53:35.519Z,10.03
2023-02-18T23:54:35.438Z,9.98
2023-02-18T23:55:35.352Z,9.90
2023-02-18T23:56:35.281Z,9.98
2023-02-18T23:57:35.188Z,10.03
2023-02-18T23:58:35.107Z,9.97
2023-02-18T23:59:35.028Z,9.97
